sensor_id;sensor_type;location;lat;lon;timestamp;pressure;altitude;pressure_sealevel;temperature;humidity
70133;BME280;57495;49.922;7.966;2023-01-27T00:00:20;100393.78;;;1.27;100.00
70133;BME280;57495;49.922;7.966;2023-01-27T00:02:21;100396.44;;;1.27;100.00
70133;BME280;57495;49.922;7.966;2023-01-27T00:04:24;100394.69;;;1.28;100.00
70133;BME280;57495;49.922;7.966;2023-01-27T00:06:25;100395.53;;;1.28;100.00
70133;BME280;57495;49.922;7.966;2023-01-27T00:08:27;100401.56;;;1.30;100.00
70133;BME280;57495;49.922;7.966;2023-01-27T00:10:28;100397.31;;;1.28;100.00
70133;BME280;57495;49.922;7.966;2023-01-27T00:12:31;100398.94;;;1.30;100.00
70133;BME280;57495;49.922;7.966;2023-01-27T00:14:50;100398.16;;;1.28;100.00
70133;BME280;57495;49.922;7.966;2023-01-27T00:16:52;100392.81;;;1.30;100.00
70133;BME280;57495;49.922;7.966;2023-01-27T00:18:53;100390.97;;;1.32;100.00
70133;BME280;57495;49.922;7.966;2023-01-27T00:20:56;100384.84;;;1.31;100.00
70133;BME280;57495;49.922;7.966;2023-01-27T00:23:16;100389.25;;;1.31;100.00
70133;BME280;57495;49.922;7.966;2023-01-27T00:25:34;100388.38;;;1.30;100.00
70133;BME280;57495;49.922;7.966;2023-01-27T00:27:36;100390.00;;;1.33;100.00
70133;BME280;57495;49.922;7.966;2023-01-27T00:29:38;100385.69;;;1.32;100.00
70133;BME280;57495;49.922;7.966;2023-01-27T00:31:39;100390.97;;;1.32;100.00
70133;BME280;57495;49.922;7.966;2023-01-27T00:33:58;100386.53;;;1.32;100.00
70133;BME280;57495;49.922;7.966;2023-01-27T00:36:04;100376.78;;;1.34;100.00
70133;BME280;57495;49.922;7.966;2023-01-27T00:38:06;100379.56;;;1.31;100.00
70133;BME280;57495;49.922;7.966;2023-01-27T00:40:08;100382.09;;;1.33;100.00
70133;BME280;57495;49.922;7.966;2023-01-27T00:42:10;100385.50;;;1.35;100.00
70133;BME280;57495;49.922;7.966;2023-01-27T00:44:11;100384.84;;;1.31;100.00
70133;BME280;57495;49.922;7.966;2023-01-27T00:46:13;100378.16;;;1.24;100.00
70133;BME280;57495;49.922;7.966;2023-01-27T00:48:14;100379.00;;;1.25;100.00
70133;BME280;57495;49.922;7.966;2023-01-27T00:50:15;100381.72;;;1.23;100.00
70133;BME280;57495;49.922;7.966;2023-01-27T00:52:18;100368.47;;;1.25;100.00
70133;BME280;57495;49.922;7.966;2023-01-27T00:54:20;100377.53;;;1.19;100.00
70133;BME280;57495;49.922;7.966;2023-01-27T00:56:21;100382.66;;;1.22;100.00
70133;BME280;57495;49.922;7.966;2023-01-27T00:58:22;100376.44;;;1.23;100.00
70133;BME280;57495;49.922;7.966;2023-01-27T01:00:24;100375.59;;;1.23;100.00
70133;BME280;57495;49.922;7.966;2023-01-27T01:02:25;100379.78;;;1.27;100.00
70133;BME280;57495;49.922;7.966;2023-01-27T01:04:27;100376.13;;;1.29;100.00
70133;BME280;57495;49.922;7.966;2023-01-27T01:06:28;100378.00;;;1.27;100.00
70133;BME280;57495;49.922;7.966;2023-01-27T01:08:33;100379.72;;;1.28;100.00
70133;BME280;57495;49.922;7.966;2023-01-27T01:10:36;100383.19;;;1.29;100.00
70133;BME280;57495;49.922;7.966;2023-01-27T01:12:37;100383.44;;;1.24;100.00
70133;BME280;57495;49.922;7.966;2023-01-27T01:14:39;100394.25;;;1.18;100.00
70133;BME280;57495;49.922;7.966;2023-01-27T01:16:40;100391.53;;;1.20;100.00
70133;BME280;57495;49.922;7.966;2023-01-27T01:18:42;100391.00;;;1.13;100.00
70133;BME280;57495;49.922;7.966;2023-01-27T01:20:45;100391.84;;;1.13;100.00
70133;BME280;57495;49.922;7.966;2023-01-27T01:22:47;100393.31;;;1.19;100.00
70133;BME280;57495;49.922;7.966;2023-01-27T01:24:50;100397.66;;;1.20;100.00
70133;BME280;57495;49.922;7.966;2023-01-27T01:26:51;100394.09;;;1.21;100.00
70133;BME280;57495;49.922;7.966;2023-01-27T01:28:53;100401.00;;;1.24;100.00
70133;BME280;57495;49.922;7.966;2023-01-27T01:30:54;100401.22;;;1.19;100.00
70133;BME280;57495;49.922;7.966;2023-01-27T01:32:56;100403.00;;;1.00;100.00
70133;BME280;57495;49.922;7.966;2023-01-27T01:34:58;100401.66;;;1.10;100.00
70133;BME280;57495;49.922;7.966;2023-01-27T01:36:59;100404.94;;;1.15;100.00
70133;BME280;57495;49.922;7.966;2023-01-27T01:39:00;100403.94;;;1.18;100.00
70133;BME280;57495;49.922;7.966;2023-01-27T01:41:04;100406.88;;;1.11;100.00
70133;BME280;57495;49.922;7.966;2023-01-27T01:43:11;100401.22;;;1.19;100.00
70133;BME280;57495;49.922;7.966;2023-01-27T01:45:42;100402.31;;;1.15;100.00
70133;BME280;57495;49.922;7.966;2023-01-27T01:47:45;100404.50;;;1.24;100.00
70133;BME280;57495;49.922;7.966;2023-01-27T01:49:46;100405.47;;;1.22;100.00
70133;BME280;57495;49.922;7.966;2023-01-27T01:51:50;100395.81;;;1.22;100.00
70133;BME280;57495;49.922;7.966;2023-01-27T01:53:56;100402.72;;;1.25;100.00
70133;BME280;57495;49.922;7.966;2023-01-27T01:56:07;100399.06;;;1.27;100.00
70133;BME280;57495;49.922;7.966;2023-01-27T01:58:11;100404.50;;;1.24;100.00
70133;BME280;57495;49.922;7.966;2023-01-27T02:00:13;100400.94;;;1.25;100.00
70133;BME280;57495;49.922;7.966;2023-01-27T02:02:17;100401.94;;;1.23;100.00
70133;BME280;57495;49.922;7.966;2023-01-27T02:04:24;100395.25;;;1.15;100.00
70133;BME280;57495;49.922;7.966;2023-01-27T02:06:27;100402.78;;;1.23;100.00
70133;BME280;57495;49.922;7.966;2023-01-27T02:08:31;100396.50;;;1.26;100.00
70133;BME280;57495;49.922;7.966;2023-01-27T02:10:35;100399.38;;;1.21;100.00
70133;BME280;57495;49.922;7.966;2023-01-27T02:12:37;100400.94;;;1.25;100.00
70133;BME280;57495;49.922;7.966;2023-01-27T02:14:40;100400.94;;;1.25;100.00
70133;BME280;57495;49.922;7.966;2023-01-27T02:16:41;100398.28;;;1.25;100.00
70133;BME280;57495;49.922;7.966;2023-01-27T02:18:43;100405.28;;;1.26;100.00
70133;BME280;57495;49.922;7.966;2023-01-27T02:20:46;100393.97;;;1.24;100.00
70133;BME280;57495;49.922;7.966;2023-01-27T02:22:51;100388.69;;;1.24;100.00
70133;BME280;57495;49.922;7.966;2023-01-27T02:25:03;100385.13;;;1.25;100.00
70133;BME280;57495;49.922;7.966;2023-01-27T02:27:08;100391.34;;;1.24;100.00
70133;BME280;57495;49.922;7.966;2023-01-27T02:29:11;100388.53;;;1.27;100.00
70133;BME280;57495;49.922;7.966;2023-01-27T02:31:13;100386.84;;;1.26;100.00
70133;BME280;57495;49.922;7.966;2023-01-27T02:33:14;100391.03;;;1.30;100.00
70133;BME280;57495;49.922;7.966;2023-01-27T02:35:20;100395.53;;;1.28;100.00
70133;BME280;57495;49.922;7.966;2023-01-27T02:37:23;100393.66;;;1.30;100.00
70133;BME280;57495;49.922;7.966;2023-01-27T02:39:26;100393.88;;;1.26;100.00
70133;BME280;57495;49.922;7.966;2023-01-27T02:41:32;100392.88;;;1.28;100.00
70133;BME280;57495;49.922;7.966;2023-01-27T02:43:36;100392.81;;;1.30;100.00
70133;BME280;57495;49.922;7.966;2023-01-27T02:45:37;100392.56;;;1.34;100.00
70133;BME280;57495;49.922;7.966;2023-01-27T02:47:39;100403.13;;;1.34;100.00
70133;BME280;57495;49.922;7.966;2023-01-27T02:49:40;100395.22;;;1.34;100.00
70133;BME280;57495;49.922;7.966;2023-01-27T02:51:41;100396.16;;;1.33;100.00
70133;BME280;57495;49.922;7.966;2023-01-27T02:53:43;100399.06;;;1.27;100.00
70133;BME280;57495;49.922;7.966;2023-01-27T02:55:45;100400.66;;;1.31;100.00
70133;BME280;57495;49.922;7.966;2023-01-27T02:57:46;100403.19;;;1.33;100.00
70133;BME280;57495;49.922;7.966;2023-01-27T02:59:49;100394.44;;;1.32;100.00
70133;BME280;57495;49.922;7.966;2023-01-27T03:01:50;100404.19;;;1.30;100.00
70133;BME280;57495;49.922;7.966;2023-01-27T03:03:52;100391.81;;;1.32;100.00
70133;BME280;57495;49.922;7.966;2023-01-27T03:05:53;100398.94;;;1.30;100.00
70133;BME280;57495;49.922;7.966;2023-01-27T03:07:54;100399.69;;;1.32;100.00
70133;BME280;57495;49.922;7.966;2023-01-27T03:09:56;100405.69;;;1.36;100.00
70133;BME280;57495;49.922;7.966;2023-01-27T03:11:57;100400.47;;;1.34;100.00
70133;BME280;57495;49.922;7.966;2023-01-27T03:14:16;100403.88;;;1.37;100.00
70133;BME280;57495;49.922;7.966;2023-01-27T03:16:19;100404.75;;;1.37;100.00
70133;BME280;57495;49.922;7.966;2023-01-27T03:18:38;100402.03;;;1.39;100.00
70133;BME280;57495;49.922;7.966;2023-01-27T03:20:39;100403.88;;;1.37;100.00
70133;BME280;57495;49.922;7.966;2023-01-27T03:22:40;100402.03;;;1.39;100.00
70133;BME280;57495;49.922;7.966;2023-01-27T03:24:42;100408.06;;;1.41;100.00
70133;BME280;57495;49.922;7.966;2023-01-27T03:26:43;100406.31;;;1.41;100.00
70133;BME280;57495;49.922;7.966;2023-01-27T03:28:45;100408.06;;;1.41;100.00
70133;BME280;57495;49.922;7.966;2023-01-27T03:31:08;100407.16;;;1.42;100.00
70133;BME280;57495;49.922;7.966;2023-01-27T03:33:19;100405.38;;;1.42;100.00
70133;BME280;57495;49.922;7.966;2023-01-27T03:35:21;100406.38;;;1.40;100.00
70133;BME280;57495;49.922;7.966;2023-01-27T03:37:23;100402.97;;;1.38;100.00
70133;BME280;57495;49.922;7.966;2023-01-27T03:39:42;100401.56;;;1.30;100.00
70133;BME280;57495;49.922;7.966;2023-01-27T03:42:01;100416.22;;;1.36;100.00
70133;BME280;57495;49.922;7.966;2023-01-27T03:44:20;100408.19;;;1.39;100.00
70133;BME280;57495;49.922;7.966;2023-01-27T03:46:40;100414.28;;;1.40;100.00
70133;BME280;57495;49.922;7.966;2023-01-27T03:48:42;100412.88;;;1.32;100.00
70133;BME280;57495;49.922;7.966;2023-01-27T03:50:44;100414.28;;;1.40;100.00
70133;BME280;57495;49.922;7.966;2023-01-27T03:52:52;100416.84;;;1.41;100.00
70133;BME280;57495;49.922;7.966;2023-01-27T03:55:03;100415.84;;;1.44;100.00
70133;BME280;57495;49.922;7.966;2023-01-27T03:57:05;100414.53;;;1.52;100.00
70133;BME280;57495;49.922;7.966;2023-01-27T03:59:07;100413.34;;;1.41;100.00
70133;BME280;57495;49.922;7.966;2023-01-27T04:01:13;100411.59;;;1.41;100.00
70133;BME280;57495;49.922;7.966;2023-01-27T04:03:15;100416.69;;;1.44;100.00
70133;BME280;57495;49.922;7.966;2023-01-27T04:05:35;100418.41;;;1.45;100.00
70133;BME280;57495;49.922;7.966;2023-01-27T04:07:54;100416.69;;;1.44;100.00
70133;BME280;57495;49.922;7.966;2023-01-27T04:09:55;100410.25;;;1.50;100.00
70133;BME280;57495;49.922;7.966;2023-01-27T04:11:58;100414.69;;;1.49;100.00
70133;BME280;57495;49.922;7.966;2023-01-27T04:14:00;100416.53;;;1.47;100.00
70133;BME280;57495;49.922;7.966;2023-01-27T04:16:02;100417.25;;;1.51;100.00
70133;BME280;57495;49.922;7.966;2023-01-27T04:18:03;100421.38;;;1.57;100.00
70133;BME280;57495;49.922;7.966;2023-01-27T04:20:05;100415.38;;;1.53;100.00
70133;BME280;57495;49.922;7.966;2023-01-27T04:22:10;100413.69;;;1.52;100.00
70133;BME280;57495;49.922;7.966;2023-01-27T04:24:12;100417.38;;;1.48;100.00
70133;BME280;57495;49.922;7.966;2023-01-27T04:26:22;100417.13;;;1.54;100.00
70133;BME280;57495;49.922;7.966;2023-01-27T04:28:23;100417.13;;;1.54;100.00
70133;BME280;57495;49.922;7.966;2023-01-27T04:30:25;100420.53;;;1.56;100.00
70133;BME280;57495;49.922;7.966;2023-01-27T04:32:26;100425.22;;;1.49;100.00
70133;BME280;57495;49.922;7.966;2023-01-27T04:34:29;100416.16;;;1.55;100.00
70133;BME280;57495;49.922;7.966;2023-01-27T04:36:31;100418.28;;;1.48;100.00
70133;BME280;57495;49.922;7.966;2023-01-27T04:38:34;100419.75;;;1.54;100.00
70133;BME280;57495;49.922;7.966;2023-01-27T04:40:35;100423.28;;;1.53;100.00
70133;BME280;57495;49.922;7.966;2023-01-27T04:42:36;100422.31;;;1.56;100.00
70133;BME280;57495;49.922;7.966;2023-01-27T04:44:38;100429.28;;;1.57;100.00
70133;BME280;57495;49.922;7.966;2023-01-27T04:46:39;100432.03;;;1.53;100.00
70133;BME280;57495;49.922;7.966;2023-01-27T04:48:41;100429.59;;;1.50;100.00
70133;BME280;57495;49.922;7.966;2023-01-27T04:50:42;100423.28;;;1.53;100.00
70133;BME280;57495;49.922;7.966;2023-01-27T04:52:43;100425.94;;;1.53;100.00
70133;BME280;57495;49.922;7.966;2023-01-27T04:54:46;100423.38;;;1.51;100.00
70133;BME280;57495;49.922;7.966;2023-01-27T04:56:56;100426.00;;;1.51;100.00
70133;BME280;57495;49.922;7.966;2023-01-27T04:58:58;100436.34;;;1.56;100.00
70133;BME280;57495;49.922;7.966;2023-01-27T05:01:00;100438.91;;;1.58;100.00
70133;BME280;57495;49.922;7.966;2023-01-27T05:03:01;100438.78;;;1.59;100.00
70133;BME280;57495;49.922;7.966;2023-01-27T05:05:05;100439.88;;;1.55;100.00
70133;BME280;57495;49.922;7.966;2023-01-27T05:07:08;100443.47;;;1.54;100.00
70133;BME280;57495;49.922;7.966;2023-01-27T05:09:09;100450.59;;;1.52;100.00
70133;BME280;57495;49.922;7.966;2023-01-27T05:11:12;100447.00;;;1.53;100.00
70133;BME280;57495;49.922;7.966;2023-01-27T05:13:14;100446.31;;;1.49;100.00
70133;BME280;57495;49.922;7.966;2023-01-27T05:15:15;100446.88;;;1.56;100.00
70133;BME280;57495;49.922;7.966;2023-01-27T05:17:17;100448.56;;;1.57;100.00
70133;BME280;57495;49.922;7.966;2023-01-27T05:19:18;100451.06;;;1.60;100.00
70133;BME280;57495;49.922;7.966;2023-01-27T05:21:22;100444.00;;;1.61;100.00
70133;BME280;57495;49.922;7.966;2023-01-27T05:23:24;100451.84;;;1.62;100.00
70133;BME280;57495;49.922;7.966;2023-01-27T05:25:41;100454.41;;;1.64;100.00
70133;BME280;57495;49.922;7.966;2023-01-27T05:27:44;100456.03;;;1.66;100.00
70133;BME280;57495;49.922;7.966;2023-01-27T05:29:45;100460.38;;;1.67;100.00
70133;BME280;57495;49.922;7.966;2023-01-27T05:31:47;100458.59;;;1.68;100.00
70133;BME280;57495;49.922;7.966;2023-01-27T05:33:49;100463.78;;;1.69;100.00
70133;BME280;57495;49.922;7.966;2023-01-27T05:35:51;100468.34;;;1.66;100.00
70133;BME280;57495;49.922;7.966;2023-01-27T05:37:53;100464.88;;;1.65;100.00
70133;BME280;57495;49.922;7.966;2023-01-27T05:39:54;100463.09;;;1.66;100.00
70133;BME280;57495;49.922;7.966;2023-01-27T05:41:55;100461.22;;;1.68;100.00
70133;BME280;57495;49.922;7.966;2023-01-27T05:43:58;100470.94;;;1.67;100.00
70133;BME280;57495;49.922;7.966;2023-01-27T05:46:01;100474.47;;;1.66;100.00
70133;BME280;57495;49.922;7.966;2023-01-27T05:48:03;100473.50;;;1.69;100.00
70133;BME280;57495;49.922;7.966;2023-01-27T05:50:05;100468.72;;;1.58;100.00
70133;BME280;57495;49.922;7.966;2023-01-27T05:52:07;100464.94;;;1.64;100.00
70133;BME280;57495;49.922;7.966;2023-01-27T05:54:09;100477.22;;;1.65;100.00
70133;BME280;57495;49.922;7.966;2023-01-27T05:56:11;100467.66;;;1.62;100.00
70133;BME280;57495;49.922;7.966;2023-01-27T05:58:13;100476.50;;;1.61;100.00
70133;BME280;57495;49.922;7.966;2023-01-27T06:00:17;100473.75;;;1.63;100.00
70133;BME280;57495;49.922;7.966;2023-01-27T06:02:19;100479.91;;;1.63;100.00
70133;BME280;57495;49.922;7.966;2023-01-27T06:04:20;100483.16;;;1.68;100.00
70133;BME280;57495;49.922;7.966;2023-01-27T06:06:23;100485.00;;;1.66;100.00
70133;BME280;57495;49.922;7.966;2023-01-27T06:08:25;100482.31;;;1.68;100.00
70133;BME280;57495;49.922;7.966;2023-01-27T06:10:27;100484.09;;;1.67;100.00
70133;BME280;57495;49.922;7.966;2023-01-27T06:12:28;100485.31;;;1.60;100.00
70133;BME280;57495;49.922;7.966;2023-01-27T06:14:30;100484.31;;;1.63;100.00
70133;BME280;57495;49.922;7.966;2023-01-27T06:16:33;100473.94;;;1.60;100.00
70133;BME280;57495;49.922;7.966;2023-01-27T06:18:34;100487.81;;;1.63;100.00
70133;BME280;57495;49.922;7.966;2023-01-27T06:20:36;100483.31;;;1.65;100.00
70133;BME280;57495;49.922;7.966;2023-01-27T06:22:38;100484.25;;;1.64;100.00
70133;BME280;57495;49.922;7.966;2023-01-27T06:24:39;100489.38;;;1.67;100.00
70133;BME280;57495;49.922;7.966;2023-01-27T06:26:40;100488.44;;;1.68;100.00
70133;BME280;57495;49.922;7.966;2023-01-27T06:28:42;100497.16;;;1.70;100.00
70133;BME280;57495;49.922;7.966;2023-01-27T06:30:45;100495.28;;;1.72;100.00
70133;BME280;57495;49.922;7.966;2023-01-27T06:32:47;100507.53;;;1.73;100.00
70133;BME280;57495;49.922;7.966;2023-01-27T06:34:49;100490.84;;;1.73;100.00
70133;BME280;57495;49.922;7.966;2023-01-27T06:36:51;100494.28;;;1.75;100.00
70133;BME280;57495;49.922;7.966;2023-01-27T06:38:53;100493.22;;;1.60;100.00
70133;BME280;57495;49.922;7.966;2023-01-27T06:40:54;100508.59;;;1.69;100.00
70133;BME280;57495;49.922;7.966;2023-01-27T06:42:56;100492.72;;;1.71;100.00
70133;BME280;57495;49.922;7.966;2023-01-27T06:44:57;100498.19;;;1.66;100.00
70133;BME280;57495;49.922;7.966;2023-01-27T06:46:58;100494.41;;;1.72;100.00
70133;BME280;57495;49.922;7.966;2023-01-27T06:49:01;100501.34;;;1.74;100.00
70133;BME280;57495;49.922;7.966;2023-01-27T06:51:03;100500.38;;;1.76;100.00
70133;BME280;57495;49.922;7.966;2023-01-27T06:53:05;100510.94;;;1.76;100.00
70133;BME280;57495;49.922;7.966;2023-01-27T06:55:07;100502.09;;;1.77;100.00
70133;BME280;57495;49.922;7.966;2023-01-27T06:57:09;100503.78;;;1.78;100.00
70133;BME280;57495;49.922;7.966;2023-01-27T06:59:10;100500.38;;;1.76;100.00
70133;BME280;57495;49.922;7.966;2023-01-27T07:01:12;100506.44;;;1.78;100.00
70133;BME280;57495;49.922;7.966;2023-01-27T07:03:13;100503.78;;;1.78;100.00
70133;BME280;57495;49.922;7.966;2023-01-27T07:05:16;100506.38;;;1.79;100.00
70133;BME280;57495;49.922;7.966;2023-01-27T07:07:17;100508.09;;;1.80;100.00
70133;BME280;57495;49.922;7.966;2023-01-27T07:09:19;100510.72;;;1.80;100.00
70133;BME280;57495;49.922;7.966;2023-01-27T07:11:20;100511.63;;;1.79;100.00
70133;BME280;57495;49.922;7.966;2023-01-27T07:13:23;100519.59;;;2.14;100.00
70133;BME280;57495;49.922;7.966;2023-01-27T07:15:24;100514.72;;;2.41;100.00
70133;BME280;57495;49.922;7.966;2023-01-27T07:17:27;100523.00;;;2.68;100.00
70133;BME280;57495;49.922;7.966;2023-01-27T07:19:29;100521.22;;;2.51;100.00
70133;BME280;57495;49.922;7.966;2023-01-27T07:21:31;100523.41;;;2.43;100.00
70133;BME280;57495;49.922;7.966;2023-01-27T07:23:33;100523.72;;;2.20;100.00
70133;BME280;57495;49.922;7.966;2023-01-27T07:25:34;100526.53;;;2.17;100.00
70133;BME280;57495;49.922;7.966;2023-01-27T07:27:35;100528.59;;;2.10;100.00
70133;BME280;57495;49.922;7.966;2023-01-27T07:29:37;100523.72;;;2.02;100.00
70133;BME280;57495;49.922;7.966;2023-01-27T07:31:38;100526.88;;;1.91;100.00
70133;BME280;57495;49.922;7.966;2023-01-27T07:33:40;100533.63;;;1.97;100.00
70133;BME280;57495;49.922;7.966;2023-01-27T07:35:41;100529.28;;;1.96;100.00
70133;BME280;57495;49.922;7.966;2023-01-27T07:37:44;100530.16;;;1.78;100.00
70133;BME280;57495;49.922;7.966;2023-01-27T07:39:45;100526.47;;;1.82;100.00
70133;BME280;57495;49.922;7.966;2023-01-27T07:41:47;100529.13;;;1.82;100.00
70133;BME280;57495;49.922;7.966;2023-01-27T07:43:49;100534.06;;;1.88;100.00
70133;BME280;57495;49.922;7.966;2023-01-27T07:45:52;100536.78;;;1.86;100.00
70133;BME280;57495;49.922;7.966;2023-01-27T07:47:58;100532.03;;;1.76;100.00
70133;BME280;57495;49.922;7.966;2023-01-27T07:50:00;100534.16;;;1.86;100.00
70133;BME280;57495;49.922;7.966;2023-01-27T07:52:01;100538.44;;;1.89;100.00
70133;BME280;57495;49.922;7.966;2023-01-27T07:54:04;100531.56;;;1.85;100.00
70133;BME280;57495;49.922;7.966;2023-01-27T07:56:06;100542.84;;;1.88;100.00
70133;BME280;57495;49.922;7.966;2023-01-27T07:58:11;100544.28;;;1.77;100.00
70133;BME280;57495;49.922;7.966;2023-01-27T08:00:13;100537.16;;;1.79;100.00
70133;BME280;57495;49.922;7.966;2023-01-27T08:02:15;100539.94;;;1.76;100.00
70133;BME280;57495;49.922;7.966;2023-01-27T08:04:17;100547.84;;;1.76;100.00
70133;BME280;57495;49.922;7.966;2023-01-27T08:06:18;100549.75;;;1.72;100.00
70133;BME280;57495;49.922;7.966;2023-01-27T08:08:20;100549.56;;;1.77;100.00
70133;BME280;57495;49.922;7.966;2023-01-27T08:10:23;100555.59;;;1.79;100.00
70133;BME280;57495;49.922;7.966;2023-01-27T08:12:24;100551.13;;;1.81;100.00
70133;BME280;57495;49.922;7.966;2023-01-27T08:14:26;100552.84;;;1.82;100.00
70133;BME280;57495;49.922;7.966;2023-01-27T08:16:28;100553.81;;;1.79;100.00
70133;BME280;57495;49.922;7.966;2023-01-27T08:18:29;100559.97;;;1.80;100.00
70133;BME280;57495;49.922;7.966;2023-01-27T08:20:32;100558.13;;;1.82;100.00
70133;BME280;57495;49.922;7.966;2023-01-27T08:22:33;100559.81;;;1.83;100.00
70133;BME280;57495;49.922;7.966;2023-01-27T08:24:35;100566.16;;;1.79;100.00
70133;BME280;57495;49.922;7.966;2023-01-27T08:26:38;100561.66;;;1.81;100.00
70133;BME280;57495;49.922;7.966;2023-01-27T08:28:40;100561.53;;;1.84;100.00
70133;BME280;57495;49.922;7.966;2023-01-27T08:30:41;100564.94;;;1.86;100.00
70133;BME280;57495;49.922;7.966;2023-01-27T08:32:43;100561.34;;;1.87;100.00
70133;BME280;57495;49.922;7.966;2023-01-27T08:34:44;100561.22;;;1.90;100.00
70133;BME280;57495;49.922;7.966;2023-01-27T08:36:45;100560.50;;;1.86;100.00
70133;BME280;57495;49.922;7.966;2023-01-27T08:38:47;100567.44;;;1.89;100.00
70133;BME280;57495;49.922;7.966;2023-01-27T08:40:49;100570.06;;;1.89;100.00
70133;BME280;57495;49.922;7.966;2023-01-27T08:42:52;100571.91;;;1.87;100.00
70133;BME280;57495;49.922;7.966;2023-01-27T08:44:53;100577.47;;;1.81;100.00
70133;BME280;57495;49.922;7.966;2023-01-27T08:46:54;100571.44;;;1.79;100.00
70133;BME280;57495;49.922;7.966;2023-01-27T08:48:56;100574.06;;;1.79;100.00
70133;BME280;57495;49.922;7.966;2023-01-27T08:50:58;100574.91;;;1.79;100.00
70133;BME280;57495;49.922;7.966;2023-01-27T08:53:00;100585.53;;;1.78;100.00
70133;BME280;57495;49.922;7.966;2023-01-27T08:55:03;100584.47;;;1.82;100.00
70133;BME280;57495;49.922;7.966;2023-01-27T08:57:05;100588.75;;;1.84;100.00
70133;BME280;57495;49.922;7.966;2023-01-27T08:59:08;100594.72;;;1.88;100.00
70133;BME280;57495;49.922;7.966;2023-01-27T09:01:09;100596.44;;;1.89;100.00
70133;BME280;57495;49.922;7.966;2023-01-27T09:03:11;100594.41;;;1.94;100.00
70133;BME280;57495;49.922;7.966;2023-01-27T09:05:13;100598.00;;;1.93;100.00
70133;BME280;57495;49.922;7.966;2023-01-27T09:07:16;100594.16;;;2.00;100.00
70133;BME280;57495;49.922;7.966;2023-01-27T09:09:18;100601.75;;;2.06;100.00
70133;BME280;57495;49.922;7.966;2023-01-27T09:11:19;100600.97;;;2.04;100.00
70133;BME280;57495;49.922;7.966;2023-01-27T09:13:21;100602.53;;;2.08;100.00
70133;BME280;57495;49.922;7.966;2023-01-27T09:15:24;100606.66;;;2.14;100.00
70133;BME280;57495;49.922;7.966;2023-01-27T09:17:25;100608.97;;;2.20;100.00
70133;BME280;57495;49.922;7.966;2023-01-27T09:19:27;100607.06;;;2.24;100.00
70133;BME280;57495;49.922;7.966;2023-01-27T09:21:28;100613.13;;;2.26;100.00
70133;BME280;57495;49.922;7.966;2023-01-27T09:23:30;100620.88;;;2.29;100.00
70133;BME280;57495;49.922;7.966;2023-01-27T09:25:31;100614.75;;;2.28;100.00
70133;BME280;57495;49.922;7.966;2023-01-27T09:27:33;100622.59;;;2.30;100.00
70133;BME280;57495;49.922;7.966;2023-01-27T09:29:34;100624.38;;;2.29;100.00
70133;BME280;57495;49.922;7.966;2023-01-27T09:31:38;100625.19;;;2.31;100.00
70133;BME280;57495;49.922;7.966;2023-01-27T09:33:39;100617.31;;;2.30;100.00
70133;BME280;57495;49.922;7.966;2023-01-27T09:35:43;100615.59;;;2.29;100.00
70133;BME280;57495;49.922;7.966;2023-01-27T09:37:48;100619.66;;;2.36;100.00
70133;BME280;57495;49.922;7.966;2023-01-27T09:39:54;100624.16;;;2.34;100.00
70133;BME280;57495;49.922;7.966;2023-01-27T09:42:06;100624.16;;;2.34;100.00
70133;BME280;57495;49.922;7.966;2023-01-27T09:44:28;100624.03;;;2.37;100.00
70133;BME280;57495;49.922;7.966;2023-01-27T09:46:49;100620.34;;;2.40;100.00
70133;BME280;57495;49.922;7.966;2023-01-27T09:49:17;100623.84;;;2.40;100.00
70133;BME280;57495;49.922;7.966;2023-01-27T09:51:30;100621.00;;;2.45;100.00
70133;BME280;57495;49.922;7.966;2023-01-27T09:54:00;100620.34;;;2.40;100.00
70133;BME280;57495;49.922;7.966;2023-01-27T09:56:10;100621.19;;;2.40;100.00
70133;BME280;57495;49.922;7.966;2023-01-27T09:58:22;100613.28;;;2.40;100.00
70133;BME280;57495;49.922;7.966;2023-01-27T10:00:38;100614.69;;;2.47;100.00
70133;BME280;57495;49.922;7.966;2023-01-27T10:03:10;100617.41;;;2.46;100.00
70133;BME280;57495;49.922;7.966;2023-01-27T10:05:30;100615.53;;;2.48;100.00
70133;BME280;57495;49.922;7.966;2023-01-27T10:07:50;100614.56;;;2.50;100.00
70133;BME280;57495;49.922;7.966;2023-01-27T10:10:02;100616.66;;;2.61;100.00
70133;BME280;57495;49.922;7.966;2023-01-27T10:12:16;100614.56;;;2.50;100.00
70133;BME280;57495;49.922;7.966;2023-01-27T10:14:30;100621.25;;;2.58;100.00
70133;BME280;57495;49.922;7.966;2023-01-27T10:16:47;100618.59;;;2.58;100.00
70133;BME280;57495;49.922;7.966;2023-01-27T10:19:04;100619.59;;;2.55;100.00
70133;BME280;57495;49.922;7.966;2023-01-27T10:21:15;100627.22;;;2.61;100.00
70133;BME280;57495;49.922;7.966;2023-01-27T10:23:33;100626.13;;;2.65;100.00
70133;BME280;57495;49.922;7.966;2023-01-27T10:25:46;100629.09;;;2.59;100.00
70133;BME280;57495;49.922;7.966;2023-01-27T10:27:55;100625.44;;;2.62;100.00
70133;BME280;57495;49.922;7.966;2023-01-27T10:29:58;100613.00;;;2.64;100.00
70133;BME280;57495;49.922;7.966;2023-01-27T10:32:06;100618.66;;;2.56;100.00
70133;BME280;57495;49.922;7.966;2023-01-27T10:34:19;100616.09;;;2.55;100.00
70133;BME280;57495;49.922;7.966;2023-01-27T10:36:28;100624.66;;;2.60;100.00
70133;BME280;57495;49.922;7.966;2023-01-27T10:38:35;100612.09;;;2.65;100.00
70133;BME280;57495;49.922;7.966;2023-01-27T10:40:43;100614.53;;;2.68;100.00
70133;BME280;57495;49.922;7.966;2023-01-27T10:42:52;100607.50;;;2.68;100.00
70133;BME280;57495;49.922;7.966;2023-01-27T10:45:12;100611.75;;;2.71;100.00
70133;BME280;57495;49.922;7.966;2023-01-27T10:47:26;100608.03;;;2.75;100.00
70133;BME280;57495;49.922;7.966;2023-01-27T10:49:38;100613.06;;;2.62;100.00